createdAt,value
2022-12-19T00:00:48.933Z,76.98
2022-12-19T00:03:37.458Z,76.99
2022-12-19T00:06:19.841Z,76.55
2022-12-19T00:09:08.266Z,77.17
2022-12-19T00:11:50.933Z,77.11
2022-12-19T00:14:39.177Z,77.38
2022-12-19T00:17:20.986Z,77.35
2022-12-19T00:20:09.425Z,78.12
2022-12-19T00:22:52.890Z,78.22
2022-12-19T00:25:41.260Z,77.70
2022-12-19T00:28:23.863Z,78.50
2022-12-19T00:31:13.261Z,78.39
2022-12-19T00:33:56.923Z,77.41
2022-12-19T00:36:46.921Z,76.94
2022-12-19T00:39:30.223Z,76.63
2022-12-19T00:42:18.892Z,76.99
2022-12-19T00:45:07.978Z,76.54
2022-12-19T00:47:56.269Z,76.70
2022-12-19T00:50:41.931Z,77.69
2022-12-19T00:53:30.203Z,77.39
2022-12-19T00:56:14.920Z,76.74
2022-12-19T00:59:04.230Z,76.50
2022-12-19T01:01:49.233Z,76.47
2022-12-19T01:04:41.584Z,76.76
2022-12-19T01:07:23.935Z,76.59
2022-12-19T01:10:17.277Z,76.90
2022-12-19T01:12:59.939Z,77.03
2022-12-19T01:15:43.214Z,78.17
2022-12-19T01:18:31.838Z,78.75
2022-12-19T01:21:20.196Z,78.25
2022-12-19T01:24:02.876Z,78.02
2022-12-19T01:26:45.116Z,78.29
2022-12-19T01:29:34.707Z,78.09
2022-12-19T01:32:26.897Z,78.18
2022-12-19T01:35:09.873Z,78.21
2022-12-19T01:38:09.926Z,78.82
2022-12-19T01:41:11.895Z,79.11
2022-12-19T01:44:10.824Z,79.12
2022-12-19T01:47:00.801Z,79.55
2022-12-19T01:49:49.878Z,79.14
2022-12-19T01:52:33.292Z,78.38
2022-12-19T01:55:21.832Z,78.97
2022-12-19T01:58:07.163Z,78.42
2022-12-19T02:00:55.898Z,78.39
2022-12-19T02:03:41.763Z,79.25
2022-12-19T02:06:31.855Z,79.11
2022-12-19T02:09:14.182Z,79.11
2022-12-19T02:12:02.946Z,79.52
2022-12-19T02:14:51.902Z,79.64
2022-12-19T02:18:00.781Z,79.26
2022-12-19T02:21:27.898Z,79.63
2022-12-19T02:24:33.372Z,79.40
2022-12-19T02:27:53.740Z,78.92
2022-12-19T02:31:02.274Z,78.57
2022-12-19T02:34:20.776Z,78.48
2022-12-19T02:37:44.024Z,79.13
2022-12-19T02:40:43.999Z,78.38
2022-12-19T02:43:31.180Z,78.27
2022-12-19T02:46:22.038Z,78.69
2022-12-19T02:49:05.517Z,79.30
2022-12-19T02:51:54.002Z,78.99
2022-12-19T02:54:45.073Z,79.19
2022-12-19T02:57:37.890Z,78.64
2022-12-19T03:00:23.802Z,79.29
2022-12-19T03:03:31.998Z,79.39
2022-12-19T03:06:32.202Z,78.28
2022-12-19T03:09:28.939Z,78.04
2022-12-19T03:12:23.874Z,78.73
2022-12-19T03:15:14.183Z,77.96
2022-12-19T03:17:57.902Z,77.73
2022-12-19T03:20:49.340Z,77.81
2022-12-19T03:23:37.885Z,77.27
2022-12-19T03:26:23.140Z,78.03
2022-12-19T03:29:31.852Z,77.46
2022-12-19T03:32:16.798Z,76.16
2022-12-19T03:35:13.847Z,75.93
2022-12-19T03:38:03.256Z,73.95
2022-12-19T03:40:53.846Z,73.27
2022-12-19T03:43:37.489Z,72.63
2022-12-19T03:46:38.804Z,71.10
2022-12-19T03:49:21.248Z,70.16
2022-12-19T03:52:19.826Z,69.73
2022-12-19T03:55:19.808Z,71.27
2022-12-19T03:58:13.997Z,69.22
2022-12-19T04:01:03.206Z,69.25
2022-12-19T04:03:46.062Z,68.97
2022-12-19T04:06:38.188Z,68.77
2022-12-19T04:09:30.908Z,66.59
2022-12-19T04:12:17.163Z,67.54
2022-12-19T04:15:05.937Z,66.83
2022-12-19T04:17:59.340Z,66.51
2022-12-19T04:20:52.904Z,68.05
2022-12-19T04:23:59.810Z,63.63
2022-12-19T04:26:53.176Z,64.42
2022-12-19T04:29:38.934Z,66.33
2022-12-19T04:32:22.498Z,65.88
2022-12-19T04:35:10.799Z,64.81
2022-12-19T04:38:00.372Z,63.44
2022-12-19T04:40:43.808Z,64.08
2022-12-19T04:43:33.195Z,64.27
2022-12-19T04:46:15.806Z,63.62
2022-12-19T04:49:10.808Z,65.72
2022-12-19T04:51:53.122Z,65.27
2022-12-19T04:54:42.845Z,66.09
2022-12-19T04:57:31.414Z,65.81
2022-12-19T05:00:15.845Z,65.67
2022-12-19T05:02:58.449Z,65.37
2022-12-19T05:05:47.813Z,66.88
2022-12-19T05:08:42.835Z,66.48
2022-12-19T05:11:31.790Z,66.53
2022-12-19T05:14:20.900Z,64.19
2022-12-19T05:17:03.097Z,66.28
2022-12-19T05:19:51.887Z,62.93
2022-12-19T05:22:40.861Z,62.64
2022-12-19T05:25:23.136Z,61.54
2022-12-19T05:28:11.908Z,61.58
2022-12-19T05:30:55.193Z,62.98
2022-12-19T05:33:44.811Z,64.23
2022-12-19T05:36:32.327Z,62.70
2022-12-19T05:39:22.811Z,62.89
2022-12-19T05:42:12.626Z,61.73
2022-12-19T05:44:55.029Z,61.61
2022-12-19T05:47:43.831Z,59.79
2022-12-19T05:50:32.243Z,60.48
2022-12-19T05:53:24.546Z,59.25
2022-12-19T05:56:10.931Z,60.04
2022-12-19T05:58:59.883Z,59.06
2022-12-19T06:01:42.478Z,56.89
2022-12-19T06:04:31.924Z,56.84
2022-12-19T06:07:21.342Z,57.52
2022-12-19T06:10:09.849Z,59.50
2022-12-19T06:12:52.600Z,56.13
2022-12-19T06:15:41.923Z,56.74
2022-12-19T06:18:24.327Z,56.54
2022-12-19T06:21:18.875Z,56.34
2022-12-19T06:24:02.192Z,58.20
2022-12-19T06:26:50.757Z,57.23
2022-12-19T06:29:39.794Z,59.30
2022-12-19T06:32:22.190Z,56.69
2022-12-19T06:35:10.891Z,56.54
2022-12-19T06:37:56.560Z,55.18
2022-12-19T06:41:07.939Z,55.26
2022-12-19T06:43:57.138Z,55.40
2022-12-19T06:46:40.856Z,57.77
2022-12-19T06:49:29.158Z,55.09
2022-12-19T06:52:11.879Z,56.35
2022-12-19T06:55:00.847Z,53.92
2022-12-19T06:57:47.129Z,53.28
2022-12-19T07:00:36.021Z,53.71
2022-12-19T07:03:21.144Z,55.70
2022-12-19T07:06:09.803Z,56.84
2022-12-19T07:09:04.726Z,53.94
2022-12-19T07:11:53.896Z,52.36
2022-12-19T07:14:36.204Z,52.57
2022-12-19T07:17:25.955Z,52.94
2022-12-19T07:20:12.241Z,54.34
2022-12-19T07:23:00.850Z,53.45
2022-12-19T07:25:43.179Z,52.83
2022-12-19T07:28:31.796Z,53.28
2022-12-19T07:31:14.402Z,53.76
2022-12-19T07:34:02.808Z,52.70
2022-12-19T07:36:45.191Z,51.34
2022-12-19T07:39:33.939Z,51.25
2022-12-19T07:42:16.229Z,51.24
2022-12-19T07:45:05.882Z,51.54
2022-12-19T07:47:49.015Z,55.53
2022-12-19T07:50:37.868Z,52.96
2022-12-19T07:53:20.180Z,55.63
2022-12-19T07:56:08.816Z,53.81
2022-12-19T07:58:51.186Z,55.58
2022-12-19T08:01:40.008Z,56.30
2022-12-19T08:04:22.273Z,57.01
2022-12-19T08:07:10.963Z,55.90
2022-12-19T08:09:59.161Z,56.29
2022-12-19T08:12:41.944Z,57.30
2022-12-19T08:15:30.332Z,57.38
2022-12-19T08:18:12.864Z,57.51
2022-12-19T08:21:01.813Z,57.53
2022-12-19T08:23:53.787Z,55.35
2022-12-19T08:26:40.626Z,56.57
2022-12-19T08:29:31.846Z,55.73
2022-12-19T08:32:21.822Z,56.53
2022-12-19T08:35:04.892Z,55.81
2022-12-19T08:37:47.209Z,56.60
2022-12-19T08:40:35.829Z,56.89
2022-12-19T08:43:24.885Z,56.04
2022-12-19T08:46:08.164Z,55.59
2022-12-19T08:48:56.857Z,57.05
2022-12-19T08:51:39.150Z,58.92
2022-12-19T08:54:27.900Z,59.15
2022-12-19T08:57:10.443Z,60.15
2022-12-19T08:59:58.835Z,55.09
2022-12-19T09:02:49.051Z,54.17
2022-12-19T09:06:05.047Z,52.55
2022-12-19T09:08:40.863Z,51.95
2022-12-19T09:11:39.355Z,50.89
2022-12-19T09:14:41.862Z,53.15
2022-12-19T09:17:24.194Z,51.04
2022-12-19T09:20:18.105Z,52.71
2022-12-19T09:23:03.118Z,52.89
2022-12-19T09:25:51.902Z,54.35
2022-12-19T09:28:40.942Z,55.04
2022-12-19T09:31:26.311Z,55.97
2022-12-19T09:34:14.843Z,56.67
2022-12-19T09:36:57.057Z,57.02
2022-12-19T09:39:45.752Z,56.89
2022-12-19T09:42:54.925Z,57.75
2022-12-19T09:46:15.251Z,57.95
2022-12-19T09:49:05.836Z,58.48
2022-12-19T09:52:13.308Z,59.12
2022-12-19T09:55:06.872Z,59.29
2022-12-19T09:58:05.868Z,58.66
2022-12-19T10:01:04.900Z,57.57
2022-12-19T10:03:52.227Z,57.86
2022-12-19T10:07:21.232Z,57.65
2022-12-19T10:12:20.701Z,57.47
2022-12-19T10:13:16.310Z,57.12
2022-12-19T10:16:28.232Z,57.65
2022-12-19T10:19:31.899Z,57.64
2022-12-19T10:22:41.128Z,58.42
2022-12-19T10:25:48.802Z,59.05
2022-12-19T10:28:43.180Z,57.57
2022-12-19T10:31:47.025Z,58.05
2022-12-19T10:34:46.449Z,58.43
2022-12-19T10:37:51.890Z,60.12
2022-12-19T10:40:58.315Z,61.54
2022-12-19T10:44:13.803Z,62.45
2022-12-19T10:46:58.488Z,61.93
2022-12-19T10:49:47.912Z,60.51
2022-12-19T10:52:58.192Z,61.32
2022-12-19T10:56:01.893Z,62.19
2022-12-19T10:58:50.167Z,61.93
2022-12-19T11:01:42.958Z,63.18
2022-12-19T11:04:42.835Z,62.93
2022-12-19T11:07:32.251Z,62.38
2022-12-19T11:13:25.516Z,62.57
2022-12-19T11:19:27.859Z,63.30
2022-12-19T11:27:03.432Z,60.58
2022-12-19T11:29:34.766Z,61.45
2022-12-19T11:29:40.717Z,62.58
2022-12-19T11:30:05.171Z,62.10
2022-12-19T11:34:09.807Z,63.16
2022-12-19T11:37:29.156Z,63.90
2022-12-19T11:40:50.076Z,64.81
2022-12-19T11:43:44.646Z,65.13
2022-12-19T11:46:41.940Z,66.20
2022-12-19T11:49:49.072Z,66.50
2022-12-19T11:56:01.368Z,67.65
2022-12-19T11:58:48.873Z,67.01
2022-12-19T12:01:48.519Z,67.65
2022-12-19T12:05:09.928Z,68.13
2022-12-19T12:08:20.005Z,68.20
2022-12-19T12:18:39.844Z,68.29
2022-12-19T12:24:56.213Z,69.14
2022-12-19T12:31:09.512Z,69.44
2022-12-19T12:31:19.068Z,69.72
2022-12-19T12:31:39.475Z,70.10
2022-12-19T12:31:53.450Z,70.31
2022-12-19T12:35:56.944Z,69.62
2022-12-19T12:38:00.386Z,69.91
2022-12-19T12:39:25.438Z,70.33
2022-12-19T12:42:24.150Z,70.77
2022-12-19T12:45:30.793Z,71.35
2022-12-19T12:48:31.306Z,71.92
2022-12-19T12:51:20.787Z,71.95
2022-12-19T12:54:22.120Z,71.55
2022-12-19T12:57:11.735Z,70.69
2022-12-19T13:00:01.867Z,70.78
2022-12-19T13:02:53.892Z,71.82
2022-12-19T13:05:54.904Z,73.03
2022-12-19T13:09:03.624Z,73.14
2022-12-19T13:12:23.693Z,73.28
2022-12-19T13:15:38.180Z,73.11
2022-12-19T13:18:41.771Z,72.92
2022-12-19T13:21:26.049Z,73.84
2022-12-19T13:24:29.719Z,74.00
2022-12-19T13:27:18.875Z,73.71
2022-12-19T13:30:21.224Z,73.17
2022-12-19T13:33:02.726Z,73.91
2022-12-19T13:39:46.497Z,73.89
2022-12-19T13:39:55.761Z,73.97
2022-12-19T13:42:36.809Z,73.97
2022-12-19T13:45:43.864Z,73.84
2022-12-19T13:48:43.521Z,74.32
2022-12-19T13:51:26.872Z,74.71
2022-12-19T13:54:32.328Z,74.60
2022-12-19T13:57:32.873Z,74.27
2022-12-19T14:00:26.790Z,74.53
2022-12-19T14:03:10.489Z,74.59
2022-12-19T14:06:16.118Z,74.47
2022-12-19T14:09:41.548Z,74.73
2022-12-19T14:13:58.198Z,75.00
2022-12-19T14:16:03.764Z,74.87
2022-12-19T14:18:57.980Z,75.35
2022-12-19T14:22:06.090Z,75.31
2022-12-19T14:24:49.111Z,75.20
2022-12-19T14:28:25.963Z,75.44
2022-12-19T14:30:42.464Z,75.25
2022-12-19T14:34:04.780Z,75.30
2022-12-19T14:37:03.089Z,75.45
2022-12-19T14:39:45.806Z,75.33
2022-12-19T14:43:56.859Z,75.20
2022-12-19T14:52:51.162Z,74.00
2022-12-19T14:54:08.630Z,74.95
2022-12-19T14:54:30.695Z,75.68
2022-12-19T14:56:16.204Z,75.51
2022-12-19T14:59:08.895Z,76.26
2022-12-19T15:02:27.831Z,76.23
2022-12-19T15:05:20.923Z,75.94
2022-12-19T15:08:03.499Z,76.33
2022-12-19T15:11:04.924Z,76.09
2022-12-19T15:14:57.681Z,75.89
2022-12-19T15:17:03.790Z,75.65
2022-12-19T15:19:53.115Z,75.92
2022-12-19T15:22:34.838Z,76.72
2022-12-19T15:26:02.048Z,76.59
2022-12-19T15:28:31.159Z,76.96
2022-12-19T15:31:48.830Z,77.50
2022-12-19T15:34:48.433Z,77.68
2022-12-19T15:37:39.051Z,77.69
2022-12-19T15:40:25.772Z,76.82
2022-12-19T15:43:53.280Z,75.02
2022-12-19T15:46:20.306Z,75.54
2022-12-19T15:49:09.697Z,75.81
2022-12-19T15:51:52.161Z,76.60
2022-12-19T15:54:49.683Z,76.62
2022-12-19T15:57:45.874Z,77.84
2022-12-19T16:00:33.905Z,77.38
2022-12-19T16:03:28.017Z,77.89
2022-12-19T16:06:26.147Z,77.85
2022-12-19T16:09:08.800Z,77.93
2022-12-19T16:12:00.223Z,78.40
2022-12-19T16:14:41.731Z,77.94
2022-12-19T16:17:26.142Z,78.40
2022-12-19T16:20:14.906Z,77.90
2022-12-19T16:23:04.162Z,78.03
2022-12-19T16:25:56.068Z,77.13
2022-12-19T16:28:39.422Z,77.08
2022-12-19T16:31:37.982Z,78.23
2022-12-19T16:34:23.417Z,78.15
2022-12-19T16:37:11.776Z,78.32
2022-12-19T16:40:00.834Z,78.56
2022-12-19T16:42:43.152Z,78.67
2022-12-19T16:45:33.787Z,78.91
2022-12-19T16:48:45.758Z,78.58
2022-12-19T16:51:36.779Z,78.77
2022-12-19T16:54:22.837Z,78.28
2022-12-19T16:57:09.646Z,78.33
2022-12-19T16:59:58.784Z,77.91
2022-12-19T17:02:43.875Z,77.90
2022-12-19T17:05:42.810Z,77.59
2022-12-19T17:08:25.778Z,77.21
2022-12-19T17:11:15.997Z,77.86
2022-12-19T17:14:05.998Z,77.01
2022-12-19T17:16:54.836Z,77.72
2022-12-19T17:19:42.708Z,78.29
2022-12-19T17:22:33.751Z,78.09
2022-12-19T17:25:23.946Z,77.34
2022-12-19T17:28:13.038Z,77.23
2022-12-19T17:30:58.619Z,78.01
2022-12-19T17:33:53.911Z,77.29
2022-12-19T17:36:37.886Z,76.94
2022-12-19T17:39:52.705Z,76.88
2022-12-19T17:42:37.585Z,77.43
2022-12-19T17:45:26.885Z,77.68
2022-12-19T17:48:29.921Z,77.88
2022-12-19T17:51:12.323Z,78.80
2022-12-19T17:54:00.784Z,78.69
2022-12-19T17:56:43.112Z,78.66
2022-12-19T17:59:31.793Z,79.20
2022-12-19T18:02:31.328Z,80.19
2022-12-19T18:05:39.841Z,79.56
2022-12-19T18:08:31.109Z,80.22
2022-12-19T18:11:38.304Z,78.89
2022-12-19T18:14:31.851Z,79.79
2022-12-19T18:17:17.530Z,80.05
2022-12-19T18:20:06.689Z,79.29
2022-12-19T18:22:49.490Z,78.52
2022-12-19T18:25:43.838Z,79.03
2022-12-19T18:28:33.645Z,79.18
2022-12-19T18:31:24.837Z,79.69
2022-12-19T18:34:15.229Z,79.97
2022-12-19T18:36:58.115Z,80.18
2022-12-19T18:39:46.785Z,80.24
2022-12-19T18:42:35.700Z,79.62
2022-12-19T18:45:37.780Z,79.67
2022-12-19T18:48:39.665Z,79.76
2022-12-19T18:51:31.755Z,79.48
2022-12-19T18:54:36.663Z,80.21
2022-12-19T18:57:25.784Z,80.28
2022-12-19T19:00:09.880Z,80.04
2022-12-19T19:03:09.928Z,79.29
2022-12-19T19:05:53.254Z,79.37
2022-12-19T19:08:42.859Z,79.07
2022-12-19T19:11:36.145Z,79.45
2022-12-19T19:14:24.747Z,79.80
2022-12-19T19:17:07.306Z,79.30
2022-12-19T19:19:55.734Z,79.28
2022-12-19T19:22:44.753Z,79.40
2022-12-19T19:25:27.279Z,79.82
2022-12-19T19:28:16.778Z,79.31
2022-12-19T19:31:07.917Z,79.50
2022-12-19T19:33:56.019Z,79.53
2022-12-19T19:36:47.759Z,79.69
2022-12-19T19:39:37.631Z,79.91
2022-12-19T19:42:28.109Z,80.21
2022-12-19T19:45:17.743Z,80.25
2022-12-19T19:48:00.276Z,79.91
2022-12-19T19:50:48.691Z,80.66
2022-12-19T19:53:37.676Z,80.10
2022-12-19T19:56:27.074Z,79.27
2022-12-19T19:59:09.828Z,78.89
2022-12-19T20:01:58.319Z,79.16
2022-12-19T20:04:40.761Z,79.06
2022-12-19T20:07:30.035Z,78.49
2022-12-19T20:10:14.732Z,79.00
2022-12-19T20:13:03.791Z,79.34
2022-12-19T20:15:49.745Z,79.37
2022-12-19T20:18:38.807Z,79.37
2022-12-19T20:21:21.251Z,79.70
2022-12-19T20:24:09.757Z,79.93
2022-12-19T20:26:52.221Z,79.27
2022-12-19T20:29:40.751Z,80.28
2022-12-19T20:32:23.099Z,79.39
2022-12-19T20:35:15.188Z,79.88
2022-12-19T20:38:03.803Z,80.19
2022-12-19T20:40:56.828Z,79.78
2022-12-19T20:43:39.736Z,79.49
2022-12-19T20:46:30.193Z,79.65
2022-12-19T20:49:12.808Z,79.81
2022-12-19T20:51:54.986Z,79.15
2022-12-19T20:54:45.714Z,78.26
2022-12-19T20:57:36.178Z,79.31
2022-12-19T21:00:18.706Z,79.12
2022-12-19T21:06:13.208Z,80.06
2022-12-19T21:09:03.711Z,79.62
2022-12-19T21:11:52.724Z,79.75
2022-12-19T21:14:41.084Z,79.66
2022-12-19T21:17:23.723Z,79.91
2022-12-19T21:20:06.496Z,79.65
2022-12-19T21:22:55.792Z,79.74
2022-12-19T21:25:37.940Z,79.10
2022-12-19T21:28:26.816Z,79.57
2022-12-19T21:31:18.300Z,79.98
2022-12-19T21:34:09.704Z,79.67
2022-12-19T21:36:51.930Z,80.03
2022-12-19T21:39:40.722Z,79.66
2022-12-19T21:42:22.907Z,79.13
2022-12-19T21:45:11.759Z,79.53
2022-12-19T21:48:00.051Z,79.18
2022-12-19T21:50:42.706Z,79.58
2022-12-19T21:53:24.905Z,79.62
2022-12-19T21:56:41.652Z,79.22
2022-12-19T21:59:30.656Z,78.41
2022-12-19T22:02:14.008Z,79.02
2022-12-19T22:05:02.750Z,78.96
2022-12-19T22:07:51.781Z,79.51
2022-12-19T22:10:35.935Z,79.62
2022-12-19T22:13:24.857Z,78.77
2022-12-19T22:16:08.482Z,79.47
2022-12-19T22:19:00.743Z,79.54
2022-12-19T22:21:43.167Z,80.14
2022-12-19T22:24:32.756Z,79.43
2022-12-19T22:27:23.792Z,79.26
2022-12-19T22:30:10.929Z,79.42
2022-12-19T22:32:53.919Z,78.84
2022-12-19T22:35:42.826Z,78.69
2022-12-19T22:38:32.029Z,79.39
2022-12-19T22:41:15.752Z,80.09
2022-12-19T22:44:11.552Z,80.06
2022-12-19T22:47:00.696Z,79.81
2022-12-19T22:49:43.083Z,79.38
2022-12-19T22:52:32.665Z,78.95
2022-12-19T22:55:16.003Z,79.04
2022-12-19T22:58:04.791Z,79.80
2022-12-19T23:00:47.004Z,79.46
2022-12-19T23:03:35.882Z,79.71
2022-12-19T23:06:18.026Z,79.26
2022-12-19T23:09:06.625Z,80.00
2022-12-19T23:11:51.091Z,79.39
2022-12-19T23:14:38.710Z,79.52
2022-12-19T23:17:21.008Z,79.51
2022-12-19T23:20:09.736Z,80.02
2022-12-19T23:22:52.064Z,79.13
2022-12-19T23:25:49.729Z,80.24
2022-12-19T23:28:32.004Z,80.30
2022-12-19T23:31:21.696Z,81.08
2022-12-19T23:34:11.673Z,80.75
2022-12-19T23:37:10.171Z,79.81
2022-12-19T23:39:59.691Z,79.74
2022-12-19T23:42:42.055Z,79.99
2022-12-19T23:45:30.880Z,79.61
2022-12-19T23:48:13.018Z,79.50
2022-12-19T23:51:01.693Z,79.82
2022-12-19T23:53:44.993Z,79.58
2022-12-19T23:56:36.997Z,80.48
2022-12-19T23:59:25.032Z,79.83
